createdAt,value
2022-10-02T00:02:25.581Z,74.63
2022-10-02T00:05:03.185Z,74.57
2022-10-02T00:07:40.270Z,74.60
2022-10-02T00:10:19.490Z,74.67
2022-10-02T00:12:55.463Z,74.64
2022-10-02T00:15:29.966Z,74.63
2022-10-02T00:18:07.084Z,74.66
2022-10-02T00:20:45.997Z,74.67
2022-10-02T00:23:27.091Z,74.72
2022-10-02T00:26:04.063Z,74.77
2022-10-02T00:28:44.127Z,74.71
2022-10-02T00:31:29.843Z,74.77
2022-10-02T00:34:15.246Z,74.68
2022-10-02T00:36:58.518Z,74.80
2022-10-02T00:39:41.134Z,74.94
2022-10-02T00:42:53.131Z,74.84
2022-10-02T00:45:45.395Z,74.90
2022-10-02T00:48:33.123Z,74.94
2022-10-02T00:51:16.256Z,75.10
2022-10-02T00:53:56.738Z,75.11
2022-10-02T00:56:38.880Z,75.16
2022-10-02T00:59:24.391Z,75.07
2022-10-02T01:02:00.842Z,75.06
2022-10-02T01:04:35.357Z,75.20
2022-10-02T01:07:10.423Z,75.28
2022-10-02T01:09:42.392Z,75.32
2022-10-02T01:12:15.577Z,75.22
2022-10-02T01:14:49.595Z,75.29
2022-10-02T01:17:26.492Z,75.31
2022-10-02T01:20:00.180Z,75.29
2022-10-02T01:22:33.048Z,75.38
2022-10-02T01:25:09.430Z,75.42
2022-10-02T01:27:41.173Z,75.46
2022-10-02T01:30:16.664Z,75.45
2022-10-02T01:32:53.406Z,75.46
2022-10-02T01:35:29.159Z,75.50
2022-10-02T01:38:03.582Z,75.48
2022-10-02T01:40:36.979Z,75.48
2022-10-02T01:43:12.530Z,75.43
2022-10-02T01:45:58.796Z,75.52
2022-10-02T01:48:46.966Z,75.66
2022-10-02T01:51:37.783Z,75.60
2022-10-02T01:54:29.303Z,75.58
2022-10-02T01:57:14.891Z,75.62
2022-10-02T01:59:59.220Z,75.58
2022-10-02T02:02:40.005Z,75.63
2022-10-02T02:05:25.508Z,75.53
2022-10-02T02:08:06.268Z,75.70
2022-10-02T02:10:47.650Z,75.60
2022-10-02T02:13:27.708Z,75.70
2022-10-02T02:16:04.893Z,75.74
2022-10-02T02:18:44.410Z,75.64
2022-10-02T02:21:22.252Z,75.65
2022-10-02T02:23:57.174Z,75.64
2022-10-02T02:26:31.685Z,75.69
2022-10-02T02:29:07.038Z,75.74
2022-10-02T02:31:43.987Z,75.72
2022-10-02T02:34:19.446Z,75.70
2022-10-02T02:36:57.768Z,75.76
2022-10-02T02:39:37.949Z,75.72
2022-10-02T02:42:17.701Z,75.78
2022-10-02T02:44:55.163Z,75.77
2022-10-02T02:47:32.656Z,75.77
2022-10-02T02:50:09.347Z,75.75
2022-10-02T02:52:46.721Z,75.67
2022-10-02T02:55:23.816Z,75.64
2022-10-02T02:58:00.480Z,75.60
2022-10-02T03:00:32.356Z,75.56
2022-10-02T03:03:04.071Z,75.55
2022-10-02T03:05:38.830Z,75.61
2022-10-02T03:08:18.573Z,75.53
2022-10-02T03:11:05.532Z,75.63
2022-10-02T03:13:52.001Z,75.57
2022-10-02T03:16:39.821Z,75.57
2022-10-02T03:19:23.159Z,75.63
2022-10-02T03:22:04.341Z,75.59
2022-10-02T03:24:42.254Z,75.56
2022-10-02T03:27:18.108Z,75.59
2022-10-02T03:29:55.387Z,75.61
2022-10-02T03:32:28.722Z,75.54
2022-10-02T03:35:02.092Z,75.52
2022-10-02T03:37:34.263Z,75.46
2022-10-02T03:40:07.455Z,75.45
2022-10-02T03:42:40.169Z,75.44
2022-10-02T03:45:32.713Z,75.46
2022-10-02T03:48:06.595Z,75.46
2022-10-02T03:50:40.913Z,75.37
2022-10-02T03:53:16.565Z,75.48
2022-10-02T03:55:52.108Z,75.51
2022-10-02T03:58:26.541Z,75.30
2022-10-02T04:01:07.204Z,75.31
2022-10-02T04:03:45.352Z,75.33
2022-10-02T04:06:20.496Z,75.35
2022-10-02T04:08:56.923Z,75.28
2022-10-02T04:11:34.969Z,75.26
2022-10-02T04:14:11.491Z,75.29
2022-10-02T04:16:48.165Z,75.22
2022-10-02T04:19:25.540Z,75.12
2022-10-02T04:22:03.881Z,75.14
2022-10-02T04:24:42.792Z,75.13
2022-10-02T04:27:19.279Z,75.10
2022-10-02T04:29:56.560Z,75.06
2022-10-02T04:32:31.621Z,75.07
2022-10-02T04:35:07.153Z,75.08
2022-10-02T04:38:00.007Z,75.16
2022-10-02T04:40:52.997Z,75.07
2022-10-02T04:43:37.221Z,75.06
2022-10-02T04:46:24.406Z,75.00
2022-10-02T04:49:27.453Z,75.01
2022-10-02T04:52:10.153Z,75.04
2022-10-02T04:55:06.995Z,75.06
2022-10-02T04:57:59.023Z,75.06
2022-10-02T05:00:37.438Z,75.13
2022-10-02T05:03:25.891Z,75.02
2022-10-02T05:06:24.410Z,75.06
2022-10-02T05:09:08.441Z,74.97
2022-10-02T05:11:45.544Z,74.97
2022-10-02T05:14:47.894Z,75.08
2022-10-02T05:17:32.666Z,75.03
2022-10-02T05:20:21.926Z,75.04
2022-10-02T05:23:11.613Z,75.03
2022-10-02T05:26:14.072Z,75.06
2022-10-02T05:29:02.694Z,75.01
2022-10-02T05:31:49.612Z,74.94
2022-10-02T05:34:35.549Z,74.97
2022-10-02T05:37:21.348Z,74.99
2022-10-02T05:40:01.609Z,74.98
2022-10-02T05:42:42.325Z,74.99
2022-10-02T05:45:23.551Z,74.95
2022-10-02T05:48:06.146Z,74.89
2022-10-02T05:50:39.189Z,74.89
2022-10-02T05:53:20.338Z,74.95
2022-10-02T05:55:57.629Z,74.94
2022-10-02T05:58:37.065Z,74.83
2022-10-02T06:01:13.557Z,74.77
2022-10-02T06:03:50.221Z,74.91
2022-10-02T06:06:27.407Z,74.78
2022-10-02T06:09:04.671Z,74.77
2022-10-02T06:11:42.093Z,74.80
2022-10-02T06:14:21.859Z,74.80
2022-10-02T06:16:56.759Z,74.79
2022-10-02T06:19:38.071Z,74.85
2022-10-02T06:22:14.832Z,74.70
2022-10-02T06:24:52.233Z,74.56
2022-10-02T06:27:32.849Z,74.68
2022-10-02T06:30:07.781Z,74.84
2022-10-02T06:32:44.707Z,74.40
2022-10-02T06:35:19.730Z,74.26
2022-10-02T06:38:12.404Z,74.36
2022-10-02T06:40:50.814Z,74.41
2022-10-02T06:43:46.324Z,74.23
2022-10-02T06:46:27.811Z,74.25
2022-10-02T06:49:05.716Z,74.20
2022-10-02T06:51:51.312Z,74.15
2022-10-02T06:54:36.471Z,73.95
2022-10-02T06:57:41.409Z,74.03
2022-10-02T07:00:18.245Z,74.12
2022-10-02T07:03:17.102Z,74.17
2022-10-02T07:06:03.191Z,73.84
2022-10-02T07:08:46.115Z,73.43
2022-10-02T07:11:25.655Z,73.54
2022-10-02T07:14:11.845Z,73.53
2022-10-02T07:16:58.752Z,73.25
2022-10-02T07:19:48.671Z,72.94
2022-10-02T07:22:44.444Z,73.13
2022-10-02T07:25:37.229Z,72.93
2022-10-02T07:28:20.105Z,72.60
2022-10-02T07:31:00.859Z,72.47
2022-10-02T07:33:47.846Z,72.65
2022-10-02T07:36:30.245Z,72.20
2022-10-02T07:39:11.122Z,71.80
2022-10-02T07:41:57.864Z,71.94
2022-10-02T07:44:53.353Z,71.67
2022-10-02T07:47:42.720Z,71.98
2022-10-02T07:50:19.972Z,71.08
2022-10-02T07:53:04.154Z,70.93
2022-10-02T07:55:41.586Z,70.83
2022-10-02T07:58:18.960Z,70.94
2022-10-02T08:00:54.386Z,71.02
2022-10-02T08:03:31.975Z,70.90
2022-10-02T08:06:04.369Z,70.56
2022-10-02T08:08:41.661Z,71.48
2022-10-02T08:11:19.756Z,72.20
2022-10-02T08:13:56.645Z,70.02
2022-10-02T08:16:33.388Z,67.76
2022-10-02T08:19:08.838Z,67.92
2022-10-02T08:21:46.372Z,68.65
2022-10-02T08:24:23.453Z,67.65
2022-10-02T08:27:01.154Z,67.41
2022-10-02T08:29:43.031Z,67.51
2022-10-02T08:32:15.403Z,67.49
2022-10-02T08:34:47.194Z,69.00
2022-10-02T08:37:30.913Z,67.20
2022-10-02T08:40:36.250Z,65.83
2022-10-02T08:43:45.258Z,65.87
2022-10-02T08:46:56.565Z,66.00
2022-10-02T08:49:59.253Z,66.18
2022-10-02T08:52:55.382Z,66.58
2022-10-02T08:55:54.915Z,66.40
2022-10-02T08:59:05.576Z,66.19
2022-10-02T09:02:29.391Z,66.31
2022-10-02T09:05:39.716Z,66.25
2022-10-02T09:08:51.931Z,65.65
2022-10-02T09:12:00.543Z,65.67
2022-10-02T09:14:56.785Z,64.71
2022-10-02T09:17:50.122Z,64.06
2022-10-02T09:20:49.086Z,63.81
2022-10-02T09:23:52.862Z,63.77
2022-10-02T09:26:35.356Z,63.64
2022-10-02T09:29:40.815Z,62.50
2022-10-02T09:32:43.607Z,61.05
2022-10-02T10:52:20.538Z,47.67
2022-10-02T10:55:18.496Z,47.97
2022-10-02T10:58:15.247Z,48.19
2022-10-02T11:01:04.206Z,48.38
2022-10-02T11:04:13.559Z,48.99
2022-10-02T11:07:13.908Z,47.10
2022-10-02T11:10:08.786Z,47.17
2022-10-02T11:13:10.656Z,47.71
2022-10-02T11:16:15.137Z,47.52
2022-10-02T11:19:19.219Z,47.84
2022-10-02T11:22:08.574Z,48.12
2022-10-02T11:24:58.785Z,48.77
2022-10-02T11:27:58.963Z,49.63
2022-10-02T11:30:41.990Z,49.76
2022-10-02T11:33:33.843Z,48.40
2022-10-02T11:36:42.755Z,46.89
2022-10-02T11:39:43.201Z,45.34
2022-10-02T11:42:36.882Z,45.13
2022-10-02T11:45:37.385Z,45.83
2022-10-02T11:48:33.331Z,46.52
2022-10-02T11:51:23.565Z,46.91
2022-10-02T11:54:10.646Z,45.83
2022-10-02T11:57:03.595Z,45.40
2022-10-02T12:00:05.799Z,44.67
2022-10-02T12:02:42.797Z,44.91
2022-10-02T12:05:25.590Z,44.98
2022-10-02T12:08:06.441Z,45.21
2022-10-02T12:10:50.692Z,44.72
2022-10-02T12:13:40.588Z,44.09
2022-10-02T12:16:22.224Z,43.12
2022-10-02T12:19:08.569Z,42.72
2022-10-02T12:22:10.127Z,42.10
2022-10-02T12:25:10.563Z,42.62
2022-10-02T12:27:56.823Z,42.15
2022-10-02T12:30:35.300Z,41.51
2022-10-02T12:33:25.393Z,41.47
2022-10-02T12:36:11.987Z,41.30
2022-10-02T12:39:05.256Z,40.68
2022-10-02T12:41:56.761Z,40.46
2022-10-02T12:44:51.590Z,40.26
2022-10-02T12:47:40.626Z,40.33
2022-10-02T12:50:31.851Z,40.75
2022-10-02T12:53:50.195Z,40.84
2022-10-02T14:02:38.932Z,48.12
2022-10-02T14:05:20.738Z,49.14
2022-10-02T14:08:14.302Z,49.50
2022-10-02T14:10:57.332Z,49.94
2022-10-02T14:13:42.501Z,50.11
2022-10-02T14:16:27.791Z,50.27
2022-10-02T14:19:24.686Z,50.43
2022-10-02T14:22:11.061Z,50.71
2022-10-02T14:25:17.490Z,50.88
2022-10-02T14:28:09.766Z,51.15
2022-10-02T14:30:55.229Z,51.35
2022-10-02T14:33:41.403Z,51.52
2022-10-02T14:36:19.448Z,52.08
2022-10-02T14:39:04.791Z,52.18
2022-10-02T14:41:53.033Z,52.48
2022-10-02T14:45:00.668Z,52.67
2022-10-02T14:47:48.463Z,52.71
2022-10-02T14:50:52.180Z,53.07
2022-10-02T14:53:48.942Z,52.92
2022-10-02T14:56:39.333Z,52.89
2022-10-02T14:59:29.935Z,52.78
2022-10-02T15:02:22.065Z,53.07
2022-10-02T15:05:07.181Z,53.34
2022-10-02T15:07:40.871Z,53.48
2022-10-02T15:10:16.367Z,53.65
2022-10-02T15:12:56.451Z,54.05
2022-10-02T15:15:38.525Z,54.26
2022-10-02T15:18:27.302Z,54.56
2022-10-02T15:21:01.721Z,54.79
2022-10-02T15:23:45.935Z,55.00
2022-10-02T15:26:30.353Z,55.10
2022-10-02T15:29:15.788Z,55.25
2022-10-02T15:32:09.397Z,55.48
2022-10-02T15:34:49.247Z,55.69
2022-10-02T15:37:28.780Z,55.71
2022-10-02T15:40:24.103Z,55.84
2022-10-02T15:42:58.819Z,56.12
2022-10-02T15:45:59.704Z,56.29
2022-10-02T15:48:52.724Z,56.57
2022-10-02T15:51:46.803Z,56.65
2022-10-02T15:54:30.940Z,56.90
2022-10-02T15:57:22.879Z,56.93
2022-10-02T16:00:10.329Z,57.25
2022-10-02T16:02:57.738Z,57.47
2022-10-02T16:05:53.565Z,57.57
2022-10-02T16:08:52.678Z,57.89
2022-10-02T16:11:50.956Z,57.97
2022-10-02T16:14:31.266Z,58.19
2022-10-02T16:17:30.325Z,58.43
2022-10-02T16:20:28.901Z,58.61
2022-10-02T16:23:12.641Z,58.73
2022-10-02T16:26:05.625Z,58.78
2022-10-02T16:28:52.108Z,59.01
2022-10-02T16:31:45.028Z,59.16
2022-10-02T16:34:32.504Z,59.22
2022-10-02T16:37:07.684Z,59.29
2022-10-02T16:39:54.458Z,59.48
2022-10-02T16:42:40.861Z,59.69
2022-10-02T16:45:38.459Z,59.88
2022-10-02T16:48:16.132Z,59.77
2022-10-02T16:51:08.808Z,59.96
2022-10-02T16:53:48.508Z,60.15
2022-10-02T16:56:26.525Z,60.26
2022-10-02T16:59:06.571Z,60.38
2022-10-02T17:02:12.765Z,60.54
2022-10-02T17:04:47.955Z,60.59
2022-10-02T17:07:32.025Z,60.68
2022-10-02T17:10:19.021Z,60.69
2022-10-02T17:12:59.066Z,60.77
2022-10-02T17:15:39.879Z,60.88
2022-10-02T17:18:20.745Z,61.04
2022-10-02T17:20:55.677Z,61.04
2022-10-02T17:23:35.291Z,61.07
2022-10-02T17:26:14.059Z,61.19
2022-10-02T17:28:52.975Z,61.26
2022-10-02T17:31:37.008Z,61.39
2022-10-02T17:34:21.208Z,61.63
2022-10-02T17:36:54.361Z,61.72
2022-10-02T17:39:37.928Z,61.95
2022-10-02T17:42:17.147Z,61.93
2022-10-02T17:45:00.421Z,61.97
2022-10-02T17:47:47.917Z,62.13
2022-10-02T17:50:38.494Z,62.26
2022-10-02T17:53:44.524Z,62.33
2022-10-02T17:56:30.763Z,62.50
2022-10-02T17:59:33.660Z,62.52
2022-10-02T18:02:14.778Z,62.83
2022-10-02T18:05:07.070Z,62.97
2022-10-02T18:07:52.873Z,63.09
2022-10-02T18:10:37.624Z,63.20
2022-10-02T18:13:29.443Z,63.31
2022-10-02T18:16:22.366Z,63.36
2022-10-02T18:19:25.361Z,63.47
2022-10-02T18:22:12.122Z,63.45
2022-10-02T18:24:59.343Z,63.59
2022-10-02T18:27:48.688Z,63.71
2022-10-02T18:30:22.871Z,63.74
2022-10-02T18:33:25.257Z,63.74
2022-10-02T18:36:16.209Z,63.86
2022-10-02T18:38:59.594Z,64.06
2022-10-02T18:41:48.787Z,64.09
2022-10-02T18:44:35.211Z,64.10
2022-10-02T18:47:15.480Z,64.22
2022-10-02T18:50:01.576Z,64.22
2022-10-02T18:52:57.285Z,64.32
2022-10-02T18:56:03.298Z,64.43
2022-10-02T18:58:46.181Z,64.43
2022-10-02T19:01:48.395Z,64.51
2022-10-02T19:04:39.161Z,64.64
2022-10-02T19:07:18.707Z,64.64
2022-10-02T19:10:14.721Z,64.71
2022-10-02T19:12:46.419Z,64.77
2022-10-02T19:15:24.028Z,64.74
2022-10-02T19:18:03.620Z,64.68
2022-10-02T19:20:45.447Z,64.81
2022-10-02T19:23:24.620Z,64.74
2022-10-02T19:25:57.959Z,64.82
2022-10-02T19:28:33.405Z,64.88
2022-10-02T19:31:09.309Z,64.93
2022-10-02T19:33:51.269Z,64.92
2022-10-02T19:36:26.794Z,65.09
2022-10-02T19:39:02.598Z,65.21
2022-10-02T19:41:43.818Z,65.26
2022-10-02T19:44:25.233Z,65.26
2022-10-02T19:47:00.259Z,65.36
2022-10-02T19:49:38.560Z,65.45
2022-10-02T19:52:33.483Z,65.57
2022-10-02T19:55:18.229Z,65.58
2022-10-02T19:57:54.301Z,65.55
2022-10-02T20:00:29.240Z,65.57
2022-10-02T20:03:03.478Z,65.60
2022-10-02T20:05:37.804Z,65.66
2022-10-02T20:08:14.146Z,65.71
2022-10-02T20:10:58.215Z,65.94
2022-10-02T20:13:34.930Z,65.92
2022-10-02T20:16:35.756Z,66.12
2022-10-02T20:19:10.704Z,66.15
2022-10-02T20:21:46.289Z,66.11
2022-10-02T20:24:26.402Z,66.21
2022-10-02T20:27:04.554Z,66.22
2022-10-02T20:29:46.758Z,66.21
2022-10-02T20:32:25.189Z,66.23
2022-10-02T20:35:03.389Z,66.33
2022-10-02T20:37:37.075Z,66.46
2022-10-02T20:40:13.670Z,66.44
2022-10-02T20:42:53.542Z,66.74
2022-10-02T20:45:32.484Z,66.74
2022-10-02T20:49:03.114Z,66.87
2022-10-02T20:51:53.459Z,66.99
2022-10-02T20:54:41.976Z,67.02
2022-10-02T20:58:06.512Z,67.03
2022-10-02T21:00:54.706Z,67.06
2022-10-02T21:03:42.785Z,67.36
2022-10-02T21:06:41.743Z,67.49
2022-10-02T21:09:42.573Z,67.54
2022-10-02T21:12:42.696Z,67.59
2022-10-02T21:15:33.400Z,67.76
2022-10-02T21:18:32.614Z,67.75
2022-10-02T21:21:39.488Z,67.67
2022-10-02T21:24:42.181Z,67.94
2022-10-02T21:27:50.638Z,67.99
2022-10-02T21:30:23.781Z,68.00
2022-10-02T21:33:05.983Z,67.90
2022-10-02T21:35:47.381Z,68.02
2022-10-02T21:38:54.484Z,68.01
2022-10-02T21:41:52.328Z,68.16
2022-10-02T21:44:56.012Z,68.22
2022-10-02T21:47:50.881Z,68.30
2022-10-02T21:51:09.021Z,68.34
2022-10-02T21:54:29.863Z,68.49
2022-10-02T21:57:49.056Z,68.54
2022-10-02T22:00:23.072Z,68.51
2022-10-02T22:03:24.855Z,68.59
2022-10-02T22:06:32.737Z,68.52
2022-10-02T22:09:19.986Z,68.56
2022-10-02T22:12:03.424Z,68.72
2022-10-02T22:14:39.677Z,68.76
2022-10-02T22:17:24.960Z,68.80
2022-10-02T22:20:16.695Z,68.95
2022-10-02T22:23:07.093Z,68.98
2022-10-02T22:25:56.158Z,69.02
2022-10-02T22:28:39.378Z,68.99
2022-10-02T22:31:33.763Z,69.06
2022-10-02T22:34:22.526Z,69.06
2022-10-02T22:37:18.464Z,68.98
2022-10-02T22:39:55.129Z,68.97
2022-10-02T22:42:33.238Z,68.93
2022-10-02T22:45:12.004Z,69.04
2022-10-02T22:47:52.023Z,69.06
2022-10-02T22:50:31.667Z,69.03
2022-10-02T22:53:13.874Z,69.15
2022-10-02T22:55:52.778Z,69.18
2022-10-02T22:58:35.099Z,69.24
2022-10-02T23:01:13.002Z,69.30
2022-10-02T23:03:49.379Z,69.51
2022-10-02T23:06:30.495Z,69.57
2022-10-02T23:09:09.887Z,69.68
2022-10-02T23:11:46.183Z,69.72
2022-10-02T23:14:26.220Z,69.75
2022-10-02T23:17:09.234Z,69.86
2022-10-02T23:19:48.254Z,69.91
2022-10-02T23:22:29.213Z,69.94
2022-10-02T23:25:07.590Z,70.05
2022-10-02T23:27:45.903Z,70.10
2022-10-02T23:30:21.798Z,70.05
2022-10-02T23:33:01.178Z,70.19
2022-10-02T23:35:40.840Z,70.11
2022-10-02T23:38:20.535Z,70.25
2022-10-02T23:41:31.434Z,70.12
2022-10-02T23:44:17.381Z,70.30
2022-10-02T23:47:08.350Z,70.32
2022-10-02T23:49:44.097Z,70.39
2022-10-02T23:52:37.917Z,70.36
2022-10-02T23:55:22.634Z,70.40
2022-10-02T23:58:13.402Z,70.29
